Goleta, California
Current Conditions -  °F | °C
As of 11:53 AM on Sunday 21 Dec 2014 (Local Time) from KSBA Reporting Station
Broken Clouds Broken Clouds  
Wind Chill: 70°   Ceiling: 25000
Heat Index: 70°   Visibility: 10mi
Dew Point: 53°   Wind: 7mph
Humidity: 55%   Direction: 260°W
Pressure: 30.1"   Gusts: NA
Location:  34.44°N, 119.83°W
Report Text: KSBA 211953Z 26006KT 10SM BKN250 21/12 A3010 RMK AO2 SLP193 T02110117
Loading
Personal Weather Stations






























Interactive Weather Map New forecast layout! Learn more

10-Day Weather Forecast

Advertisements
Track Severe Weather on mobile